sensor_id;sensor_type;location;lat;lon;timestamp;P1;durP1;ratioP1;P2;durP2;ratioP2
31746;SDS011;18319;48.974;8.462;2023-07-22T00:00:23;1.70;;;1.60;;
31746;SDS011;18319;48.974;8.462;2023-07-22T00:02:51;1.77;;;1.67;;
31746;SDS011;18319;48.974;8.462;2023-07-22T00:05:17;1.80;;;1.70;;
31746;SDS011;18319;48.974;8.462;2023-07-22T00:07:48;1.77;;;1.55;;
31746;SDS011;18319;48.974;8.462;2023-07-22T00:10:15;1.75;;;1.65;;
31746;SDS011;18319;48.974;8.462;2023-07-22T00:12:42;3.15;;;1.77;;
31746;SDS011;18319;48.974;8.462;2023-07-22T00:15:09;1.92;;;1.45;;
31746;SDS011;18319;48.974;8.462;2023-07-22T00:17:38;1.80;;;1.70;;
31746;SDS011;18319;48.974;8.462;2023-07-22T00:20:05;1.23;;;1.13;;
31746;SDS011;18319;48.974;8.462;2023-07-22T00:22:35;2.83;;;1.75;;
31746;SDS011;18319;48.974;8.462;2023-07-22T00:25:03;2.30;;;2.10;;
31746;SDS011;18319;48.974;8.462;2023-07-22T00:27:30;2.45;;;1.30;;
31746;SDS011;18319;48.974;8.462;2023-07-22T00:29:57;5.05;;;1.92;;
31746;SDS011;18319;48.974;8.462;2023-07-22T00:32:24;2.20;;;2.00;;
31746;SDS011;18319;48.974;8.462;2023-07-22T00:34:52;3.33;;;1.52;;
31746;SDS011;18319;48.974;8.462;2023-07-22T00:37:19;1.83;;;1.70;;
31746;SDS011;18319;48.974;8.462;2023-07-22T00:39:46;2.10;;;1.98;;
31746;SDS011;18319;48.974;8.462;2023-07-22T00:42:13;2.67;;;2.00;;
31746;SDS011;18319;48.974;8.462;2023-07-22T00:44:39;1.95;;;1.85;;
31746;SDS011;18319;48.974;8.462;2023-07-22T00:47:06;2.10;;;2.00;;
31746;SDS011;18319;48.974;8.462;2023-07-22T00:49:34;3.22;;;1.88;;
31746;SDS011;18319;48.974;8.462;2023-07-22T00:52:04;2.30;;;2.10;;
31746;SDS011;18319;48.974;8.462;2023-07-22T00:54:31;2.47;;;2.25;;
31746;SDS011;18319;48.974;8.462;2023-07-22T00:56:58;2.70;;;2.47;;
31746;SDS011;18319;48.974;8.462;2023-07-22T00:59:25;2.20;;;1.90;;
31746;SDS011;18319;48.974;8.462;2023-07-22T01:01:51;2.00;;;1.80;;
31746;SDS011;18319;48.974;8.462;2023-07-22T01:04:19;2.22;;;1.98;;
31746;SDS011;18319;48.974;8.462;2023-07-22T01:06:47;2.55;;;1.85;;
31746;SDS011;18319;48.974;8.462;2023-07-22T01:09:16;1.92;;;1.83;;
31746;SDS011;18319;48.974;8.462;2023-07-22T01:11:43;6.50;;;2.05;;
31746;SDS011;18319;48.974;8.462;2023-07-22T01:14:10;1.92;;;1.80;;
31746;SDS011;18319;48.974;8.462;2023-07-22T01:16:36;2.13;;;1.92;;
31746;SDS011;18319;48.974;8.462;2023-07-22T01:19:04;2.80;;;1.88;;
31746;SDS011;18319;48.974;8.462;2023-07-22T01:21:31;2.75;;;1.88;;
31746;SDS011;18319;48.974;8.462;2023-07-22T01:24:00;1.90;;;1.80;;
31746;SDS011;18319;48.974;8.462;2023-07-22T01:26:27;2.78;;;2.13;;
31746;SDS011;18319;48.974;8.462;2023-07-22T01:29:01;2.10;;;2.00;;
31746;SDS011;18319;48.974;8.462;2023-07-22T01:31:29;2.63;;;1.80;;
31746;SDS011;18319;48.974;8.462;2023-07-22T01:33:55;1.83;;;1.73;;
31746;SDS011;18319;48.974;8.462;2023-07-22T01:36:23;1.75;;;1.38;;
31746;SDS011;18319;48.974;8.462;2023-07-22T01:38:50;3.42;;;2.03;;
31746;SDS011;18319;48.974;8.462;2023-07-22T01:41:18;2.10;;;1.95;;
31746;SDS011;18319;48.974;8.462;2023-07-22T01:43:45;1.73;;;1.63;;
31746;SDS011;18319;48.974;8.462;2023-07-22T01:46:12;3.08;;;1.50;;
31746;SDS011;18319;48.974;8.462;2023-07-22T01:48:38;2.40;;;2.20;;
31746;SDS011;18319;48.974;8.462;2023-07-22T01:51:05;2.13;;;2.03;;
31746;SDS011;18319;48.974;8.462;2023-07-22T01:53:32;1.77;;;1.65;;
31746;SDS011;18319;48.974;8.462;2023-07-22T01:55:59;3.13;;;1.85;;
31746;SDS011;18319;48.974;8.462;2023-07-22T01:58:27;1.90;;;1.80;;
31746;SDS011;18319;48.974;8.462;2023-07-22T02:00:54;1.77;;;1.67;;
31746;SDS011;18319;48.974;8.462;2023-07-22T02:03:21;2.05;;;1.73;;
31746;SDS011;18319;48.974;8.462;2023-07-22T02:05:48;1.88;;;1.77;;
31746;SDS011;18319;48.974;8.462;2023-07-22T02:08:14;3.60;;;1.50;;
31746;SDS011;18319;48.974;8.462;2023-07-22T02:10:41;2.38;;;1.67;;
31746;SDS011;18319;48.974;8.462;2023-07-22T02:13:08;1.58;;;1.45;;
31746;SDS011;18319;48.974;8.462;2023-07-22T02:15:37;2.80;;;2.10;;
31746;SDS011;18319;48.974;8.462;2023-07-22T02:18:04;1.75;;;1.63;;
31746;SDS011;18319;48.974;8.462;2023-07-22T02:20:31;2.65;;;1.63;;
31746;SDS011;18319;48.974;8.462;2023-07-22T02:22:57;2.58;;;1.70;;
31746;SDS011;18319;48.974;8.462;2023-07-22T02:25:24;1.65;;;1.55;;
31746;SDS011;18319;48.974;8.462;2023-07-22T02:27:51;1.92;;;1.80;;
31746;SDS011;18319;48.974;8.462;2023-07-22T02:30:17;1.88;;;1.75;;
31746;SDS011;18319;48.974;8.462;2023-07-22T02:32:46;1.77;;;1.65;;
31746;SDS011;18319;48.974;8.462;2023-07-22T02:35:12;1.98;;;1.50;;
31746;SDS011;18319;48.974;8.462;2023-07-22T02:37:39;1.90;;;1.80;;
31746;SDS011;18319;48.974;8.462;2023-07-22T02:40:06;3.83;;;1.92;;
31746;SDS011;18319;48.974;8.462;2023-07-22T02:42:35;1.67;;;1.58;;
31746;SDS011;18319;48.974;8.462;2023-07-22T02:45:02;1.45;;;1.35;;
31746;SDS011;18319;48.974;8.462;2023-07-22T02:47:29;3.05;;;1.65;;
31746;SDS011;18319;48.974;8.462;2023-07-22T02:49:59;1.48;;;1.38;;
31746;SDS011;18319;48.974;8.462;2023-07-22T02:52:26;2.15;;;2.05;;
31746;SDS011;18319;48.974;8.462;2023-07-22T02:55:06;1.48;;;1.38;;
31746;SDS011;18319;48.974;8.462;2023-07-22T02:57:35;2.10;;;1.58;;
31746;SDS011;18319;48.974;8.462;2023-07-22T03:00:03;1.95;;;1.40;;
31746;SDS011;18319;48.974;8.462;2023-07-22T03:02:33;1.30;;;1.20;;
31746;SDS011;18319;48.974;8.462;2023-07-22T03:05:01;2.17;;;1.60;;
31746;SDS011;18319;48.974;8.462;2023-07-22T03:07:31;1.92;;;1.75;;
31746;SDS011;18319;48.974;8.462;2023-07-22T03:09:58;1.50;;;1.40;;
31746;SDS011;18319;48.974;8.462;2023-07-22T03:12:25;3.42;;;1.60;;
31746;SDS011;18319;48.974;8.462;2023-07-22T03:14:52;1.50;;;1.40;;
31746;SDS011;18319;48.974;8.462;2023-07-22T03:17:19;2.22;;;2.10;;
31746;SDS011;18319;48.974;8.462;2023-07-22T03:19:46;2.25;;;1.92;;
31746;SDS011;18319;48.974;8.462;2023-07-22T03:22:15;1.60;;;1.50;;
31746;SDS011;18319;48.974;8.462;2023-07-22T03:24:42;1.77;;;1.67;;
31746;SDS011;18319;48.974;8.462;2023-07-22T03:27:09;3.28;;;1.75;;
31746;SDS011;18319;48.974;8.462;2023-07-22T03:29:36;1.60;;;1.50;;
31746;SDS011;18319;48.974;8.462;2023-07-22T03:32:04;1.55;;;1.45;;
31746;SDS011;18319;48.974;8.462;2023-07-22T03:34:31;2.05;;;1.63;;
31746;SDS011;18319;48.974;8.462;2023-07-22T03:36:58;1.88;;;1.77;;
31746;SDS011;18319;48.974;8.462;2023-07-22T03:39:26;2.55;;;2.38;;
31746;SDS011;18319;48.974;8.462;2023-07-22T03:41:52;2.75;;;1.50;;
31746;SDS011;18319;48.974;8.462;2023-07-22T03:44:19;2.22;;;1.58;;
31746;SDS011;18319;48.974;8.462;2023-07-22T03:46:46;1.90;;;1.63;;
31746;SDS011;18319;48.974;8.462;2023-07-22T03:49:13;1.60;;;1.50;;
31746;SDS011;18319;48.974;8.462;2023-07-22T03:51:40;1.83;;;1.73;;
31746;SDS011;18319;48.974;8.462;2023-07-22T03:54:07;2.65;;;2.53;;
31746;SDS011;18319;48.974;8.462;2023-07-22T03:56:35;1.60;;;1.50;;
31746;SDS011;18319;48.974;8.462;2023-07-22T03:59:03;4.35;;;1.98;;
31746;SDS011;18319;48.974;8.462;2023-07-22T04:01:29;2.15;;;1.92;;
31746;SDS011;18319;48.974;8.462;2023-07-22T04:03:56;2.03;;;1.33;;
31746;SDS011;18319;48.974;8.462;2023-07-22T04:06:23;2.20;;;1.63;;
31746;SDS011;18319;48.974;8.462;2023-07-22T04:08:49;1.80;;;1.70;;
31746;SDS011;18319;48.974;8.462;2023-07-22T04:11:17;2.00;;;1.30;;
31746;SDS011;18319;48.974;8.462;2023-07-22T04:13:45;2.13;;;1.77;;
31746;SDS011;18319;48.974;8.462;2023-07-22T04:16:13;2.60;;;1.70;;
31746;SDS011;18319;48.974;8.462;2023-07-22T04:18:40;3.10;;;1.60;;
31746;SDS011;18319;48.974;8.462;2023-07-22T04:21:07;1.88;;;1.58;;
31746;SDS011;18319;48.974;8.462;2023-07-22T04:23:34;1.98;;;1.88;;
31746;SDS011;18319;48.974;8.462;2023-07-22T04:26:01;2.15;;;1.80;;
31746;SDS011;18319;48.974;8.462;2023-07-22T04:28:32;1.65;;;1.42;;
31746;SDS011;18319;48.974;8.462;2023-07-22T04:31:00;1.90;;;1.80;;
31746;SDS011;18319;48.974;8.462;2023-07-22T04:33:27;3.45;;;1.92;;
31746;SDS011;18319;48.974;8.462;2023-07-22T04:35:55;2.35;;;2.15;;
31746;SDS011;18319;48.974;8.462;2023-07-22T04:38:24;2.13;;;2.03;;
31746;SDS011;18319;48.974;8.462;2023-07-22T04:40:51;1.70;;;1.60;;
31746;SDS011;18319;48.974;8.462;2023-07-22T04:43:18;2.17;;;1.98;;
31746;SDS011;18319;48.974;8.462;2023-07-22T04:45:44;3.88;;;1.77;;
31746;SDS011;18319;48.974;8.462;2023-07-22T04:48:14;3.45;;;1.98;;
31746;SDS011;18319;48.974;8.462;2023-07-22T04:50:42;2.17;;;1.98;;
31746;SDS011;18319;48.974;8.462;2023-07-22T04:53:10;3.70;;;3.50;;
31746;SDS011;18319;48.974;8.462;2023-07-22T04:55:38;2.92;;;1.88;;
31746;SDS011;18319;48.974;8.462;2023-07-22T04:58:05;1.83;;;1.73;;
31746;SDS011;18319;48.974;8.462;2023-07-22T05:00:31;2.65;;;1.88;;
31746;SDS011;18319;48.974;8.462;2023-07-22T05:02:58;2.70;;;2.47;;
31746;SDS011;18319;48.974;8.462;2023-07-22T05:05:27;1.80;;;1.70;;
31746;SDS011;18319;48.974;8.462;2023-07-22T05:07:53;2.45;;;2.25;;
31746;SDS011;18319;48.974;8.462;2023-07-22T05:10:20;2.38;;;1.80;;
31746;SDS011;18319;48.974;8.462;2023-07-22T05:12:47;2.03;;;1.77;;
31746;SDS011;18319;48.974;8.462;2023-07-22T05:15:14;2.20;;;2.00;;
31746;SDS011;18319;48.974;8.462;2023-07-22T05:17:41;2.15;;;1.95;;
31746;SDS011;18319;48.974;8.462;2023-07-22T05:20:08;2.65;;;2.03;;
31746;SDS011;18319;48.974;8.462;2023-07-22T05:22:37;2.20;;;1.98;;
31746;SDS011;18319;48.974;8.462;2023-07-22T05:25:04;2.63;;;2.42;;
31746;SDS011;18319;48.974;8.462;2023-07-22T05:27:32;3.00;;;2.20;;
31746;SDS011;18319;48.974;8.462;2023-07-22T05:29:59;2.38;;;1.80;;
31746;SDS011;18319;48.974;8.462;2023-07-22T05:32:27;1.80;;;1.70;;
31746;SDS011;18319;48.974;8.462;2023-07-22T05:34:54;2.10;;;1.75;;
31746;SDS011;18319;48.974;8.462;2023-07-22T05:37:21;1.48;;;1.38;;
31746;SDS011;18319;48.974;8.462;2023-07-22T05:39:49;2.40;;;1.88;;
31746;SDS011;18319;48.974;8.462;2023-07-22T05:42:16;3.25;;;1.40;;
31746;SDS011;18319;48.974;8.462;2023-07-22T05:44:43;2.63;;;2.03;;
31746;SDS011;18319;48.974;8.462;2023-07-22T05:47:10;1.92;;;1.83;;
31746;SDS011;18319;48.974;8.462;2023-07-22T05:49:36;2.63;;;2.40;;
31746;SDS011;18319;48.974;8.462;2023-07-22T05:52:03;2.65;;;2.10;;
31746;SDS011;18319;48.974;8.462;2023-07-22T05:54:31;3.35;;;1.80;;
31746;SDS011;18319;48.974;8.462;2023-07-22T05:56:59;2.08;;;1.55;;
31746;SDS011;18319;48.974;8.462;2023-07-22T05:59:25;3.78;;;1.98;;
31746;SDS011;18319;48.974;8.462;2023-07-22T06:01:52;2.15;;;1.85;;
31746;SDS011;18319;48.974;8.462;2023-07-22T06:04:19;2.17;;;2.08;;
31746;SDS011;18319;48.974;8.462;2023-07-22T06:06:46;2.97;;;2.28;;
31746;SDS011;18319;48.974;8.462;2023-07-22T06:09:12;2.60;;;2.00;;
31746;SDS011;18319;48.974;8.462;2023-07-22T06:11:39;2.03;;;1.83;;
31746;SDS011;18319;48.974;8.462;2023-07-22T06:14:07;1.75;;;1.65;;
31746;SDS011;18319;48.974;8.462;2023-07-22T06:16:34;1.70;;;1.60;;
31746;SDS011;18319;48.974;8.462;2023-07-22T06:19:01;2.53;;;1.48;;
31746;SDS011;18319;48.974;8.462;2023-07-22T06:21:29;1.40;;;1.30;;
31746;SDS011;18319;48.974;8.462;2023-07-22T06:23:55;3.13;;;1.90;;
31746;SDS011;18319;48.974;8.462;2023-07-22T06:26:22;2.47;;;1.90;;
31746;SDS011;18319;48.974;8.462;2023-07-22T06:28:49;3.42;;;1.88;;
31746;SDS011;18319;48.974;8.462;2023-07-22T06:31:17;1.55;;;1.42;;
31746;SDS011;18319;48.974;8.462;2023-07-22T06:33:44;1.92;;;1.83;;
31746;SDS011;18319;48.974;8.462;2023-07-22T06:36:10;1.38;;;1.30;;
31746;SDS011;18319;48.974;8.462;2023-07-22T06:38:37;1.98;;;1.77;;
31746;SDS011;18319;48.974;8.462;2023-07-22T06:41:04;2.10;;;1.85;;
31746;SDS011;18319;48.974;8.462;2023-07-22T06:43:31;1.50;;;1.40;;
31746;SDS011;18319;48.974;8.462;2023-07-22T06:45:58;3.08;;;2.28;;
31746;SDS011;18319;48.974;8.462;2023-07-22T06:48:26;2.42;;;1.50;;
31746;SDS011;18319;48.974;8.462;2023-07-22T06:50:53;1.80;;;1.70;;
31746;SDS011;18319;48.974;8.462;2023-07-22T06:53:20;1.88;;;1.63;;
31746;SDS011;18319;48.974;8.462;2023-07-22T06:55:50;2.97;;;1.33;;
31746;SDS011;18319;48.974;8.462;2023-07-22T06:58:17;2.63;;;1.73;;
31746;SDS011;18319;48.974;8.462;2023-07-22T07:00:44;1.80;;;1.42;;
31746;SDS011;18319;48.974;8.462;2023-07-22T07:03:11;1.55;;;1.45;;
31746;SDS011;18319;48.974;8.462;2023-07-22T07:05:39;1.80;;;1.70;;
31746;SDS011;18319;48.974;8.462;2023-07-22T07:08:06;2.28;;;1.75;;
31746;SDS011;18319;48.974;8.462;2023-07-22T07:10:36;1.50;;;1.40;;
31746;SDS011;18319;48.974;8.462;2023-07-22T07:13:04;1.50;;;1.40;;
31746;SDS011;18319;48.974;8.462;2023-07-22T07:15:30;1.80;;;1.60;;
31746;SDS011;18319;48.974;8.462;2023-07-22T07:17:57;1.80;;;1.70;;
31746;SDS011;18319;48.974;8.462;2023-07-22T07:20:24;5.90;;;1.30;;
31746;SDS011;18319;48.974;8.462;2023-07-22T07:22:52;2.65;;;1.80;;
31746;SDS011;18319;48.974;8.462;2023-07-22T07:25:19;1.50;;;1.40;;
31746;SDS011;18319;48.974;8.462;2023-07-22T07:27:46;2.17;;;1.60;;
31746;SDS011;18319;48.974;8.462;2023-07-22T07:30:12;4.40;;;1.90;;
31746;SDS011;18319;48.974;8.462;2023-07-22T07:32:39;2.28;;;2.03;;
31746;SDS011;18319;48.974;8.462;2023-07-22T07:35:07;2.45;;;1.15;;
31746;SDS011;18319;48.974;8.462;2023-07-22T07:37:34;2.20;;;1.45;;
31746;SDS011;18319;48.974;8.462;2023-07-22T07:40:02;1.50;;;1.40;;
31746;SDS011;18319;48.974;8.462;2023-07-22T07:42:29;1.45;;;1.35;;
31746;SDS011;18319;48.974;8.462;2023-07-22T07:44:56;1.30;;;1.23;;
31746;SDS011;18319;48.974;8.462;2023-07-22T07:47:23;1.67;;;1.58;;
31746;SDS011;18319;48.974;8.462;2023-07-22T07:49:49;1.45;;;1.30;;
31746;SDS011;18319;48.974;8.462;2023-07-22T07:52:16;1.60;;;1.50;;
31746;SDS011;18319;48.974;8.462;2023-07-22T07:54:43;1.58;;;1.48;;
31746;SDS011;18319;48.974;8.462;2023-07-22T07:57:11;1.73;;;1.55;;
31746;SDS011;18319;48.974;8.462;2023-07-22T07:59:38;2.03;;;1.70;;
31746;SDS011;18319;48.974;8.462;2023-07-22T08:02:05;1.90;;;1.60;;
31746;SDS011;18319;48.974;8.462;2023-07-22T08:04:34;2.30;;;1.60;;
31746;SDS011;18319;48.974;8.462;2023-07-22T08:07:01;2.30;;;1.77;;
31746;SDS011;18319;48.974;8.462;2023-07-22T08:09:29;1.65;;;1.55;;
31746;SDS011;18319;48.974;8.462;2023-07-22T08:11:56;1.23;;;1.05;;
31746;SDS011;18319;48.974;8.462;2023-07-22T08:14:24;1.90;;;1.45;;
31746;SDS011;18319;48.974;8.462;2023-07-22T08:16:51;3.40;;;1.38;;
31746;SDS011;18319;48.974;8.462;2023-07-22T08:19:18;1.40;;;1.30;;
31746;SDS011;18319;48.974;8.462;2023-07-22T08:21:44;1.55;;;1.45;;
31746;SDS011;18319;48.974;8.462;2023-07-22T08:24:11;2.15;;;1.25;;
31746;SDS011;18319;48.974;8.462;2023-07-22T08:26:38;2.10;;;1.33;;
31746;SDS011;18319;48.974;8.462;2023-07-22T08:29:05;1.52;;;1.42;;
31746;SDS011;18319;48.974;8.462;2023-07-22T08:31:33;1.33;;;1.25;;
31746;SDS011;18319;48.974;8.462;2023-07-22T08:34:01;1.45;;;1.35;;
31746;SDS011;18319;48.974;8.462;2023-07-22T08:36:28;1.33;;;1.23;;
31746;SDS011;18319;48.974;8.462;2023-07-22T08:38:54;1.75;;;1.20;;
31746;SDS011;18319;48.974;8.462;2023-07-22T08:41:21;2.35;;;1.27;;
31746;SDS011;18319;48.974;8.462;2023-07-22T08:43:50;1.30;;;1.20;;
31746;SDS011;18319;48.974;8.462;2023-07-22T08:46:18;2.53;;;1.45;;
31746;SDS011;18319;48.974;8.462;2023-07-22T08:48:47;0.98;;;0.98;;
31746;SDS011;18319;48.974;8.462;2023-07-22T08:51:19;2.15;;;1.42;;
31746;SDS011;18319;48.974;8.462;2023-07-22T08:53:48;1.23;;;1.00;;
31746;SDS011;18319;48.974;8.462;2023-07-22T08:56:16;1.40;;;1.20;;
31746;SDS011;18319;48.974;8.462;2023-07-22T08:58:43;1.40;;;1.27;;
31746;SDS011;18319;48.974;8.462;2023-07-22T09:01:12;1.50;;;1.40;;
31746;SDS011;18319;48.974;8.462;2023-07-22T09:03:39;1.10;;;1.02;;
31746;SDS011;18319;48.974;8.462;2023-07-22T09:06:09;1.30;;;1.20;;
31746;SDS011;18319;48.974;8.462;2023-07-22T09:08:36;1.60;;;1.30;;
31746;SDS011;18319;48.974;8.462;2023-07-22T09:11:04;1.40;;;1.10;;
31746;SDS011;18319;48.974;8.462;2023-07-22T09:13:32;2.55;;;1.27;;
31746;SDS011;18319;48.974;8.462;2023-07-22T09:16:02;1.23;;;1.13;;
31746;SDS011;18319;48.974;8.462;2023-07-22T09:18:29;1.00;;;1.00;;
31746;SDS011;18319;48.974;8.462;2023-07-22T09:20:58;1.58;;;1.13;;
31746;SDS011;18319;48.974;8.462;2023-07-22T09:23:35;1.23;;;1.13;;
31746;SDS011;18319;48.974;8.462;2023-07-22T09:26:09;1.77;;;1.10;;
31746;SDS011;18319;48.974;8.462;2023-07-22T09:31:20;1.20;;;1.13;;
31746;SDS011;18319;48.974;8.462;2023-07-22T09:33:48;1.05;;;0.80;;
31746;SDS011;18319;48.974;8.462;2023-07-22T09:36:15;1.42;;;1.17;;
31746;SDS011;18319;48.974;8.462;2023-07-22T09:38:44;1.67;;;1.00;;
31746;SDS011;18319;48.974;8.462;2023-07-22T09:41:10;1.25;;;1.15;;
31746;SDS011;18319;48.974;8.462;2023-07-22T09:43:38;1.30;;;1.20;;
31746;SDS011;18319;48.974;8.462;2023-07-22T09:46:06;1.05;;;0.90;;
31746;SDS011;18319;48.974;8.462;2023-07-22T09:48:40;2.03;;;0.95;;
31746;SDS011;18319;48.974;8.462;2023-07-22T09:51:11;1.60;;;0.90;;
31746;SDS011;18319;48.974;8.462;2023-07-22T09:53:44;2.13;;;1.08;;
31746;SDS011;18319;48.974;8.462;2023-07-22T09:56:12;1.48;;;1.20;;
31746;SDS011;18319;48.974;8.462;2023-07-22T09:58:39;1.85;;;1.20;;
31746;SDS011;18319;48.974;8.462;2023-07-22T10:01:07;2.20;;;1.20;;
31746;SDS011;18319;48.974;8.462;2023-07-22T10:03:36;2.47;;;1.25;;
31746;SDS011;18319;48.974;8.462;2023-07-22T10:06:04;3.08;;;1.40;;
31746;SDS011;18319;48.974;8.462;2023-07-22T10:08:34;1.67;;;1.27;;
31746;SDS011;18319;48.974;8.462;2023-07-22T10:11:04;1.10;;;1.10;;
31746;SDS011;18319;48.974;8.462;2023-07-22T10:13:34;1.70;;;1.30;;
31746;SDS011;18319;48.974;8.462;2023-07-22T10:16:02;1.30;;;1.20;;
31746;SDS011;18319;48.974;8.462;2023-07-22T10:18:31;3.10;;;1.13;;
31746;SDS011;18319;48.974;8.462;2023-07-22T10:20:59;1.20;;;1.20;;
31746;SDS011;18319;48.974;8.462;2023-07-22T10:23:27;1.10;;;1.00;;
31746;SDS011;18319;48.974;8.462;2023-07-22T10:25:57;2.72;;;1.00;;
31746;SDS011;18319;48.974;8.462;2023-07-22T10:28:25;1.77;;;1.27;;
31746;SDS011;18319;48.974;8.462;2023-07-22T10:30:52;1.00;;;0.90;;
31746;SDS011;18319;48.974;8.462;2023-07-22T10:33:19;1.20;;;1.20;;
31746;SDS011;18319;48.974;8.462;2023-07-22T10:36:01;2.65;;;0.90;;
31746;SDS011;18319;48.974;8.462;2023-07-22T10:38:29;1.13;;;1.05;;
31746;SDS011;18319;48.974;8.462;2023-07-22T10:40:56;1.58;;;0.80;;
31746;SDS011;18319;48.974;8.462;2023-07-22T10:43:24;1.05;;;0.90;;
31746;SDS011;18319;48.974;8.462;2023-07-22T10:45:53;1.35;;;0.75;;
31746;SDS011;18319;48.974;8.462;2023-07-22T10:48:22;1.30;;;1.20;;
31746;SDS011;18319;48.974;8.462;2023-07-22T10:50:51;1.33;;;1.08;;
31746;SDS011;18319;48.974;8.462;2023-07-22T10:53:21;0.80;;;0.80;;
31746;SDS011;18319;48.974;8.462;2023-07-22T10:56:11;1.90;;;0.93;;
31746;SDS011;18319;48.974;8.462;2023-07-22T10:58:57;1.00;;;0.82;;
31746;SDS011;18319;48.974;8.462;2023-07-22T11:01:32;0.80;;;0.80;;
31746;SDS011;18319;48.974;8.462;2023-07-22T11:06:55;0.95;;;0.95;;
31746;SDS011;18319;48.974;8.462;2023-07-22T11:09:35;1.48;;;1.20;;
31746;SDS011;18319;48.974;8.462;2023-07-22T11:12:05;1.10;;;1.00;;
31746;SDS011;18319;48.974;8.462;2023-07-22T11:14:37;1.20;;;1.10;;
31746;SDS011;18319;48.974;8.462;2023-07-22T11:17:06;1.05;;;1.05;;
31746;SDS011;18319;48.974;8.462;2023-07-22T11:19:34;1.83;;;1.52;;
31746;SDS011;18319;48.974;8.462;2023-07-22T11:22:01;2.25;;;0.75;;
31746;SDS011;18319;48.974;8.462;2023-07-22T11:24:28;2.33;;;1.38;;
31746;SDS011;18319;48.974;8.462;2023-07-22T11:26:55;0.88;;;0.88;;
31746;SDS011;18319;48.974;8.462;2023-07-22T11:29:21;1.63;;;1.08;;
31746;SDS011;18319;48.974;8.462;2023-07-22T11:31:50;0.80;;;0.80;;
31746;SDS011;18319;48.974;8.462;2023-07-22T11:34:18;1.13;;;1.02;;
31746;SDS011;18319;48.974;8.462;2023-07-22T11:36:46;2.17;;;1.27;;
31746;SDS011;18319;48.974;8.462;2023-07-22T11:39:14;1.83;;;1.35;;
31746;SDS011;18319;48.974;8.462;2023-07-22T11:41:41;1.13;;;1.02;;
31746;SDS011;18319;48.974;8.462;2023-07-22T11:44:09;1.38;;;1.27;;
31746;SDS011;18319;48.974;8.462;2023-07-22T11:46:46;1.52;;;0.98;;
31746;SDS011;18319;48.974;8.462;2023-07-22T11:49:22;1.30;;;1.20;;
31746;SDS011;18319;48.974;8.462;2023-07-22T11:51:50;1.23;;;0.90;;
31746;SDS011;18319;48.974;8.462;2023-07-22T11:54:17;1.88;;;1.10;;
31746;SDS011;18319;48.974;8.462;2023-07-22T11:56:46;1.00;;;0.90;;
31746;SDS011;18319;48.974;8.462;2023-07-22T11:59:13;1.40;;;1.10;;
31746;SDS011;18319;48.974;8.462;2023-07-22T12:01:42;0.80;;;0.77;;
31746;SDS011;18319;48.974;8.462;2023-07-22T12:04:10;1.00;;;0.98;;
31746;SDS011;18319;48.974;8.462;2023-07-22T12:06:39;0.95;;;0.93;;
31746;SDS011;18319;48.974;8.462;2023-07-22T12:09:07;0.70;;;0.70;;
31746;SDS011;18319;48.974;8.462;2023-07-22T12:11:34;1.80;;;1.27;;
31746;SDS011;18319;48.974;8.462;2023-07-22T12:14:06;1.15;;;1.05;;
31746;SDS011;18319;48.974;8.462;2023-07-22T12:16:34;1.88;;;1.20;;
31746;SDS011;18319;48.974;8.462;2023-07-22T12:19:01;2.15;;;0.90;;
31746;SDS011;18319;48.974;8.462;2023-07-22T12:21:29;1.40;;;1.00;;
31746;SDS011;18319;48.974;8.462;2023-07-22T12:23:57;1.10;;;1.00;;
31746;SDS011;18319;48.974;8.462;2023-07-22T12:26:24;1.08;;;1.08;;
31746;SDS011;18319;48.974;8.462;2023-07-22T12:28:51;2.03;;;1.55;;
31746;SDS011;18319;48.974;8.462;2023-07-22T12:31:18;1.73;;;0.88;;
31746;SDS011;18319;48.974;8.462;2023-07-22T12:33:45;1.10;;;1.00;;
31746;SDS011;18319;48.974;8.462;2023-07-22T12:36:12;1.05;;;1.05;;
31746;SDS011;18319;48.974;8.462;2023-07-22T12:38:38;2.20;;;1.15;;
31746;SDS011;18319;48.974;8.462;2023-07-22T12:41:06;1.52;;;1.42;;
31746;SDS011;18319;48.974;8.462;2023-07-22T12:43:33;1.55;;;1.45;;
31746;SDS011;18319;48.974;8.462;2023-07-22T12:46:00;1.55;;;1.45;;
31746;SDS011;18319;48.974;8.462;2023-07-22T12:48:27;1.60;;;0.90;;
31746;SDS011;18319;48.974;8.462;2023-07-22T12:50:54;1.73;;;1.63;;
31746;SDS011;18319;48.974;8.462;2023-07-22T12:53:21;4.45;;;1.30;;
31746;SDS011;18319;48.974;8.462;2023-07-22T12:55:47;1.02;;;1.02;;
31746;SDS011;18319;48.974;8.462;2023-07-22T12:58:15;1.40;;;1.35;;
31746;SDS011;18319;48.974;8.462;2023-07-22T13:00:42;1.38;;;1.27;;
31746;SDS011;18319;48.974;8.462;2023-07-22T13:03:09;0.65;;;0.65;;
31746;SDS011;18319;48.974;8.462;2023-07-22T13:05:36;1.13;;;1.08;;
31746;SDS011;18319;48.974;8.462;2023-07-22T13:08:03;1.08;;;0.98;;
31746;SDS011;18319;48.974;8.462;2023-07-22T13:10:30;1.98;;;1.20;;
31746;SDS011;18319;48.974;8.462;2023-07-22T13:12:58;1.38;;;0.88;;
31746;SDS011;18319;48.974;8.462;2023-07-22T13:15:26;1.00;;;1.00;;
31746;SDS011;18319;48.974;8.462;2023-07-22T13:17:53;1.30;;;1.00;;
31746;SDS011;18319;48.974;8.462;2023-07-22T13:20:20;1.27;;;1.17;;
31746;SDS011;18319;48.974;8.462;2023-07-22T13:22:46;0.98;;;0.85;;
31746;SDS011;18319;48.974;8.462;2023-07-22T13:25:13;2.03;;;1.05;;
31746;SDS011;18319;48.974;8.462;2023-07-22T13:27:42;1.00;;;1.00;;
31746;SDS011;18319;48.974;8.462;2023-07-22T13:30:09;3.22;;;1.00;;
31746;SDS011;18319;48.974;8.462;2023-07-22T13:32:38;1.42;;;1.08;;
31746;SDS011;18319;48.974;8.462;2023-07-22T13:35:05;0.93;;;0.88;;
31746;SDS011;18319;48.974;8.462;2023-07-22T13:37:32;0.88;;;0.88;;
31746;SDS011;18319;48.974;8.462;2023-07-22T13:39:59;1.27;;;1.20;;
31746;SDS011;18319;48.974;8.462;2023-07-22T13:42:26;1.35;;;1.08;;
31746;SDS011;18319;48.974;8.462;2023-07-22T13:44:53;1.50;;;1.20;;
31746;SDS011;18319;48.974;8.462;2023-07-22T13:47:20;2.08;;;1.15;;
31746;SDS011;18319;48.974;8.462;2023-07-22T13:49:48;1.30;;;1.20;;
31746;SDS011;18319;48.974;8.462;2023-07-22T13:52:14;1.33;;;1.20;;
31746;SDS011;18319;48.974;8.462;2023-07-22T13:54:41;1.85;;;1.42;;
31746;SDS011;18319;48.974;8.462;2023-07-22T13:57:08;2.22;;;1.13;;
31746;SDS011;18319;48.974;8.462;2023-07-22T13:59:35;1.15;;;1.05;;
31746;SDS011;18319;48.974;8.462;2023-07-22T14:02:01;1.45;;;1.00;;
31746;SDS011;18319;48.974;8.462;2023-07-22T14:04:28;1.52;;;1.42;;
31746;SDS011;18319;48.974;8.462;2023-07-22T14:06:56;1.50;;;1.40;;
31746;SDS011;18319;48.974;8.462;2023-07-22T14:09:23;2.92;;;1.27;;
31746;SDS011;18319;48.974;8.462;2023-07-22T14:11:50;1.77;;;1.15;;
31746;SDS011;18319;48.974;8.462;2023-07-22T14:14:17;1.65;;;1.20;;
31746;SDS011;18319;48.974;8.462;2023-07-22T14:16:44;1.20;;;1.10;;
31746;SDS011;18319;48.974;8.462;2023-07-22T14:19:11;1.10;;;1.00;;
31746;SDS011;18319;48.974;8.462;2023-07-22T14:21:38;1.42;;;1.30;;
31746;SDS011;18319;48.974;8.462;2023-07-22T14:24:06;2.03;;;1.17;;
31746;SDS011;18319;48.974;8.462;2023-07-22T14:26:33;2.28;;;1.15;;
31746;SDS011;18319;48.974;8.462;2023-07-22T14:28:59;1.27;;;1.17;;
31746;SDS011;18319;48.974;8.462;2023-07-22T14:31:26;1.73;;;1.38;;
31746;SDS011;18319;48.974;8.462;2023-07-22T14:33:53;1.50;;;1.40;;
31746;SDS011;18319;48.974;8.462;2023-07-22T14:36:20;1.10;;;1.00;;
31746;SDS011;18319;48.974;8.462;2023-07-22T14:38:47;1.67;;;1.20;;
31746;SDS011;18319;48.974;8.462;2023-07-22T14:41:15;2.95;;;1.40;;
31746;SDS011;18319;48.974;8.462;2023-07-22T14:43:42;1.50;;;1.40;;
31746;SDS011;18319;48.974;8.462;2023-07-22T14:46:08;1.80;;;1.70;;
31746;SDS011;18319;48.974;8.462;2023-07-22T14:48:35;1.20;;;0.98;;
31746;SDS011;18319;48.974;8.462;2023-07-22T14:51:02;1.75;;;1.40;;
31746;SDS011;18319;48.974;8.462;2023-07-22T14:53:29;1.23;;;1.02;;
31746;SDS011;18319;48.974;8.462;2023-07-22T14:55:55;1.30;;;1.20;;